Recycle, Texas
Current Conditions -  °F | °C
As of 2:55 AM on Monday 20 Oct 2014 (Local Time) from KPEZ Reporting Station
Scattered Clouds Scattered Clouds  
Wind Chill: 19°   Ceiling: Unl
Heat Index: 19°   Visibility: 10mi
Dew Point: 18°   Wind: 0mph
Humidity: 92%   Direction: NA
Pressure: 30.01"   Gusts: NA
Location:  29.0306°N, 98.0993°W
Report Text: KPEZ 200755Z AUTO 00000KT 10SM SCT065 19/18 A3001 RMK AO2 T01900177
Loading
Personal Weather Stations






























Interactive Weather Map
Tropical Storm Tracking
New forecast layout! Learn more

10-Day Weather Forecast

Advertisements
Track Severe Weather on mobile